sensor_id;sensor_type;location;lat;lon;timestamp;pressure;altitude;pressure_sealevel;temperature;humidity
76358;BME280;65185;21.060;105.826;2023-11-21T00:00:35;101828.34;;;20.19;92.29
76358;BME280;65185;21.060;105.826;2023-11-21T00:03:02;101826.53;;;20.21;91.84
76358;BME280;65185;21.060;105.826;2023-11-21T00:05:30;101823.03;;;20.21;91.86
76358;BME280;65185;21.060;105.826;2023-11-21T00:07:57;101829.06;;;20.24;91.82
76358;BME280;65185;21.060;105.826;2023-11-21T00:10:24;101825.50;;;20.27;91.99
76358;BME280;65185;21.060;105.826;2023-11-21T00:12:51;101831.53;;;20.30;91.56
76358;BME280;65185;21.060;105.826;2023-11-21T00:15:17;101828.88;;;20.32;91.43
76358;BME280;65185;21.060;105.826;2023-11-21T00:17:44;101833.31;;;20.30;91.18
76358;BME280;65185;21.060;105.826;2023-11-21T00:20:12;101845.53;;;20.32;91.81
76358;BME280;65185;21.060;105.826;2023-11-21T00:22:39;101837.50;;;20.37;91.55
76358;BME280;65185;21.060;105.826;2023-11-21T00:25:07;101838.38;;;20.37;91.44
76358;BME280;65185;21.060;105.826;2023-11-21T00:27:35;101828.63;;;20.41;91.48
76358;BME280;65185;21.060;105.826;2023-11-21T00:30:03;101842.56;;;20.44;91.24
76358;BME280;65185;21.060;105.826;2023-11-21T00:32:31;101844.19;;;20.48;91.23
76358;BME280;65185;21.060;105.826;2023-11-21T00:34:58;101839.72;;;20.52;91.43
76358;BME280;65185;21.060;105.826;2023-11-21T00:37:25;101832.69;;;20.52;90.59
76358;BME280;65185;21.060;105.826;2023-11-21T00:39:52;101845.03;;;20.50;90.51
76358;BME280;65185;21.060;105.826;2023-11-21T00:42:19;101843.22;;;20.52;91.06
76358;BME280;65185;21.060;105.826;2023-11-21T00:44:47;101847.44;;;20.58;89.97
76358;BME280;65185;21.060;105.826;2023-11-21T00:47:14;101849.97;;;20.61;88.92
76358;BME280;65185;21.060;105.826;2023-11-21T00:49:41;101843.72;;;20.65;89.12
76358;BME280;65185;21.060;105.826;2023-11-21T00:52:09;101852.34;;;20.70;89.17
76358;BME280;65185;21.060;105.826;2023-11-21T00:54:36;101857.50;;;20.74;89.08
76358;BME280;65185;21.060;105.826;2023-11-21T00:57:03;101856.53;;;20.78;89.18
76358;BME280;65185;21.060;105.826;2023-11-21T00:59:30;101850.34;;;20.79;88.67
76358;BME280;65185;21.060;105.826;2023-11-21T01:01:57;101862.63;;;20.79;89.09
76358;BME280;65185;21.060;105.826;2023-11-21T01:04:26;101872.06;;;20.86;88.95
76358;BME280;65185;21.060;105.826;2023-11-21T01:06:53;101868.50;;;20.88;88.59
76358;BME280;65185;21.060;105.826;2023-11-21T01:09:20;101864.97;;;20.90;88.64
76358;BME280;65185;21.060;105.826;2023-11-21T01:11:47;101862.19;;;20.94;87.79
76358;BME280;65185;21.060;105.826;2023-11-21T01:14:14;101868.19;;;21.01;88.01
76358;BME280;65185;21.060;105.826;2023-11-21T01:16:41;101864.53;;;21.05;87.78
76358;BME280;65185;21.060;105.826;2023-11-21T01:19:08;101862.66;;;21.10;87.32
76358;BME280;65185;21.060;105.826;2023-11-21T01:21:35;101865.19;;;21.13;87.21
76358;BME280;65185;21.060;105.826;2023-11-21T01:24:02;101872.91;;;21.19;86.87
76358;BME280;65185;21.060;105.826;2023-11-21T01:26:29;101873.75;;;21.21;86.68
76358;BME280;65185;21.060;105.826;2023-11-21T01:28:56;101875.34;;;21.25;86.73
76358;BME280;65185;21.060;105.826;2023-11-21T01:31:23;101878.72;;;21.30;86.84
76358;BME280;65185;21.060;105.826;2023-11-21T01:33:50;101880.34;;;21.34;86.91
76358;BME280;65185;21.060;105.826;2023-11-21T01:36:17;101878.44;;;21.39;86.83
76358;BME280;65185;21.060;105.826;2023-11-21T01:38:44;101881.75;;;21.45;87.33
76358;BME280;65185;21.060;105.826;2023-11-21T01:41:11;101881.66;;;21.48;87.06
76358;BME280;65185;21.060;105.826;2023-11-21T01:43:39;101886.84;;;21.51;87.38
76358;BME280;65185;21.060;105.826;2023-11-21T01:46:06;101882.19;;;21.59;87.21
76358;BME280;65185;21.060;105.826;2023-11-21T01:48:34;101878.53;;;21.63;86.62
76358;BME280;65185;21.060;105.826;2023-11-21T01:51:01;101880.09;;;21.69;86.87
76358;BME280;65185;21.060;105.826;2023-11-21T01:53:28;101877.16;;;21.78;86.27
76358;BME280;65185;21.060;105.826;2023-11-21T01:55:56;101874.31;;;21.86;85.69
76358;BME280;65185;21.060;105.826;2023-11-21T01:58:24;101875.81;;;21.94;85.22
76358;BME280;65185;21.060;105.826;2023-11-21T02:00:50;101874.75;;;22.00;84.56
76358;BME280;65185;21.060;105.826;2023-11-21T02:03:19;101877.16;;;22.06;83.82
76358;BME280;65185;21.060;105.826;2023-11-21T02:05:46;101875.13;;;22.14;84.02
76358;BME280;65185;21.060;105.826;2023-11-21T02:08:13;101869.53;;;22.23;83.72
76358;BME280;65185;21.060;105.826;2023-11-21T02:10:40;101873.59;;;22.33;83.46
76358;BME280;65185;21.060;105.826;2023-11-21T02:13:07;101875.97;;;22.40;82.37
76358;BME280;65185;21.060;105.826;2023-11-21T02:15:34;101872.88;;;22.52;82.19
76358;BME280;65185;21.060;105.826;2023-11-21T02:18:01;101872.44;;;22.64;80.41
76358;BME280;65185;21.060;105.826;2023-11-21T02:20:29;101868.69;;;22.71;80.20
76358;BME280;65185;21.060;105.826;2023-11-21T02:22:57;101861.97;;;22.86;79.39
76358;BME280;65185;21.060;105.826;2023-11-21T02:25:29;101855.31;;;22.99;79.61
76358;BME280;65185;21.060;105.826;2023-11-21T02:28:05;101852.25;;;23.10;79.19
76358;BME280;65185;21.060;105.826;2023-11-21T02:30:32;101849.81;;;23.27;78.07
76358;BME280;65185;21.060;105.826;2023-11-21T02:33:00;101846.88;;;23.34;76.96
76358;BME280;65185;21.060;105.826;2023-11-21T02:35:27;101846.34;;;23.48;75.75
76358;BME280;65185;21.060;105.826;2023-11-21T02:37:56;101838.97;;;23.56;73.83
76358;BME280;65185;21.060;105.826;2023-11-21T02:40:23;101849.28;;;23.62;74.03
76358;BME280;65185;21.060;105.826;2023-11-21T02:42:51;101841.66;;;23.76;73.44
76358;BME280;65185;21.060;105.826;2023-11-21T02:45:19;101838.63;;;23.85;73.06
76358;BME280;65185;21.060;105.826;2023-11-21T02:47:50;101835.31;;;24.02;72.86
76358;BME280;65185;21.060;105.826;2023-11-21T02:50:19;101834.44;;;24.21;71.85
76358;BME280;65185;21.060;105.826;2023-11-21T02:52:46;101821.72;;;24.49;71.01
76358;BME280;65185;21.060;105.826;2023-11-21T02:55:13;101826.22;;;24.86;69.90
76358;BME280;65185;21.060;105.826;2023-11-21T02:57:40;101818.47;;;25.37;68.50
76358;BME280;65185;21.060;105.826;2023-11-21T03:00:07;101812.94;;;25.95;66.83
76358;BME280;65185;21.060;105.826;2023-11-21T03:02:34;101813.91;;;26.43;62.50
76358;BME280;65185;21.060;105.826;2023-11-21T03:05:06;101808.25;;;26.67;60.38
76358;BME280;65185;21.060;105.826;2023-11-21T03:07:38;101806.94;;;27.06;57.39
76358;BME280;65185;21.060;105.826;2023-11-21T03:10:07;101805.41;;;27.18;57.78
76358;BME280;65185;21.060;105.826;2023-11-21T03:12:37;101800.84;;;27.20;57.11
76358;BME280;65185;21.060;105.826;2023-11-21T03:15:08;101806.94;;;27.22;57.31
76358;BME280;65185;21.060;105.826;2023-11-21T03:17:35;101798.25;;;27.18;57.63
76358;BME280;65185;21.060;105.826;2023-11-21T03:20:03;101789.09;;;27.08;57.68
76358;BME280;65185;21.060;105.826;2023-11-21T03:22:30;101792.53;;;26.62;57.84
76358;BME280;65185;21.060;105.826;2023-11-21T03:24:57;101773.69;;;26.67;59.56
76358;BME280;65185;21.060;105.826;2023-11-21T03:27:24;101771.47;;;26.75;60.05
76358;BME280;65185;21.060;105.826;2023-11-21T03:29:51;101778.00;;;26.69;59.36
76358;BME280;65185;21.060;105.826;2023-11-21T03:32:18;101769.09;;;26.53;58.32
76358;BME280;65185;21.060;105.826;2023-11-21T03:34:58;101762.31;;;26.32;59.58
76358;BME280;65185;21.060;105.826;2023-11-21T03:37:25;101759.28;;;26.22;58.85
76358;BME280;65185;21.060;105.826;2023-11-21T03:39:57;101747.31;;;26.14;59.37
76358;BME280;65185;21.060;105.826;2023-11-21T03:42:24;101745.13;;;26.05;59.14
76358;BME280;65185;21.060;105.826;2023-11-21T03:44:54;101737.94;;;25.90;58.79
76358;BME280;65185;21.060;105.826;2023-11-21T03:47:22;101742.72;;;25.83;58.73
76358;BME280;65185;21.060;105.826;2023-11-21T03:49:48;101738.97;;;25.70;58.62
76358;BME280;65185;21.060;105.826;2023-11-21T03:52:15;101728.03;;;25.59;60.20
76358;BME280;65185;21.060;105.826;2023-11-21T03:54:42;101729.13;;;25.55;56.63
76358;BME280;65185;21.060;105.826;2023-11-21T03:57:09;101726.41;;;25.56;54.85
76358;BME280;65185;21.060;105.826;2023-11-21T03:59:39;101713.19;;;25.55;55.24
76358;BME280;65185;21.060;105.826;2023-11-21T04:02:06;101719.16;;;25.60;56.89
76358;BME280;65185;21.060;105.826;2023-11-21T04:04:34;101709.47;;;25.59;55.89
76358;BME280;65185;21.060;105.826;2023-11-21T04:07:01;101705.31;;;25.53;56.87
76358;BME280;65185;21.060;105.826;2023-11-21T04:09:29;101702.72;;;25.35;57.17
76358;BME280;65185;21.060;105.826;2023-11-21T04:11:56;101694.44;;;25.24;57.54
76358;BME280;65185;21.060;105.826;2023-11-21T04:14:23;101693.81;;;25.36;57.32
76358;BME280;65185;21.060;105.826;2023-11-21T04:16:50;101682.66;;;25.29;57.86
76358;BME280;65185;21.060;105.826;2023-11-21T04:19:17;101682.66;;;25.29;58.25
76358;BME280;65185;21.060;105.826;2023-11-21T04:21:44;101672.19;;;25.26;58.62
76358;BME280;65185;21.060;105.826;2023-11-21T04:24:12;101660.50;;;25.30;56.63
76358;BME280;65185;21.060;105.826;2023-11-21T04:26:39;101656.91;;;25.31;56.66
76358;BME280;65185;21.060;105.826;2023-11-21T04:29:05;101646.34;;;25.13;57.84
76358;BME280;65185;21.060;105.826;2023-11-21T04:31:32;101640.84;;;25.17;57.57
76358;BME280;65185;21.060;105.826;2023-11-21T04:33:59;101642.00;;;25.12;56.79
76358;BME280;65185;21.060;105.826;2023-11-21T04:36:26;101636.22;;;25.21;57.45
76358;BME280;65185;21.060;105.826;2023-11-21T04:38:53;101631.22;;;25.15;57.59
76358;BME280;65185;21.060;105.826;2023-11-21T04:41:20;101623.06;;;25.19;57.44
76358;BME280;65185;21.060;105.826;2023-11-21T04:43:47;101616.88;;;25.19;57.56
76358;BME280;65185;21.060;105.826;2023-11-21T04:46:15;101608.63;;;25.25;56.93
76358;BME280;65185;21.060;105.826;2023-11-21T04:48:42;101606.09;;;25.22;57.00
76358;BME280;65185;21.060;105.826;2023-11-21T04:51:09;101600.66;;;25.25;57.45
76358;BME280;65185;21.060;105.826;2023-11-21T04:53:37;101586.53;;;25.24;56.52
76358;BME280;65185;21.060;105.826;2023-11-21T04:56:05;101580.13;;;25.28;55.87
76358;BME280;65185;21.060;105.826;2023-11-21T04:58:32;101567.09;;;25.24;56.41
76358;BME280;65185;21.060;105.826;2023-11-21T05:00:59;101567.97;;;25.24;56.31
76358;BME280;65185;21.060;105.826;2023-11-21T05:03:26;101559.00;;;25.27;56.48
76358;BME280;65185;21.060;105.826;2023-11-21T05:05:56;101549.69;;;25.35;56.73
76358;BME280;65185;21.060;105.826;2023-11-21T05:08:22;101540.66;;;25.39;54.50
76358;BME280;65185;21.060;105.826;2023-11-21T05:10:49;101533.91;;;25.49;54.23
76358;BME280;65185;21.060;105.826;2023-11-21T05:13:18;101529.38;;;25.51;53.88
76358;BME280;65185;21.060;105.826;2023-11-21T05:15:46;101526.22;;;25.45;54.89
76358;BME280;65185;21.060;105.826;2023-11-21T05:18:13;101519.25;;;25.42;54.20
76358;BME280;65185;21.060;105.826;2023-11-21T05:20:43;101518.03;;;25.32;54.57
76358;BME280;65185;21.060;105.826;2023-11-21T05:23:10;101516.47;;;25.28;54.55
76358;BME280;65185;21.060;105.826;2023-11-21T05:25:38;101507.13;;;25.37;54.45
76358;BME280;65185;21.060;105.826;2023-11-21T05:28:05;101499.75;;;25.43;53.31
76358;BME280;65185;21.060;105.826;2023-11-21T05:30:32;101496.53;;;25.54;55.02
76358;BME280;65185;21.060;105.826;2023-11-21T05:33:02;101489.00;;;25.62;54.68
76358;BME280;65185;21.060;105.826;2023-11-21T05:35:29;101481.09;;;25.60;53.51
76358;BME280;65185;21.060;105.826;2023-11-21T05:37:56;101474.19;;;25.58;53.85
76358;BME280;65185;21.060;105.826;2023-11-21T05:40:23;101468.59;;;25.47;54.54
76358;BME280;65185;21.060;105.826;2023-11-21T05:42:52;101466.47;;;25.36;54.54
76358;BME280;65185;21.060;105.826;2023-11-21T05:45:19;101458.78;;;25.32;54.23
76358;BME280;65185;21.060;105.826;2023-11-21T05:47:47;101456.22;;;25.30;54.05
76358;BME280;65185;21.060;105.826;2023-11-21T05:50:16;101455.44;;;25.28;54.99
76358;BME280;65185;21.060;105.826;2023-11-21T05:52:44;101447.81;;;25.22;55.10
76358;BME280;65185;21.060;105.826;2023-11-21T05:55:12;101443.88;;;25.29;52.84
76358;BME280;65185;21.060;105.826;2023-11-21T05:57:40;101437.28;;;25.38;53.93
76358;BME280;65185;21.060;105.826;2023-11-21T06:00:10;101432.16;;;25.50;53.27
76358;BME280;65185;21.060;105.826;2023-11-21T06:02:39;101421.19;;;25.56;53.46
76358;BME280;65185;21.060;105.826;2023-11-21T06:05:07;101409.88;;;25.53;54.15
76358;BME280;65185;21.060;105.826;2023-11-21T06:07:35;101414.56;;;25.48;54.55
76358;BME280;65185;21.060;105.826;2023-11-21T06:10:03;101412.34;;;25.40;54.20
76358;BME280;65185;21.060;105.826;2023-11-21T06:12:36;101403.25;;;25.29;54.11
76358;BME280;65185;21.060;105.826;2023-11-21T06:15:05;101392.47;;;25.32;53.99
76358;BME280;65185;21.060;105.826;2023-11-21T06:17:34;101390.28;;;25.40;52.54
76358;BME280;65185;21.060;105.826;2023-11-21T06:20:05;101386.34;;;25.47;53.71
76358;BME280;65185;21.060;105.826;2023-11-21T06:22:37;101384.63;;;25.61;51.98
76358;BME280;65185;21.060;105.826;2023-11-21T06:25:28;101368.09;;;25.72;52.72
76358;BME280;65185;21.060;105.826;2023-11-21T06:27:55;101361.75;;;25.75;51.85
76358;BME280;65185;21.060;105.826;2023-11-21T06:30:23;101363.22;;;25.80;52.95
76358;BME280;65185;21.060;105.826;2023-11-21T06:32:50;101364.03;;;25.81;53.06
76358;BME280;65185;21.060;105.826;2023-11-21T06:35:17;101351.28;;;25.72;53.78
76358;BME280;65185;21.060;105.826;2023-11-21T06:37:44;101347.72;;;25.73;53.59
76358;BME280;65185;21.060;105.826;2023-11-21T06:40:14;101348.41;;;25.60;54.59
76358;BME280;65185;21.060;105.826;2023-11-21T06:42:48;101342.84;;;25.49;55.11
76358;BME280;65185;21.060;105.826;2023-11-21T06:45:15;101338.97;;;25.55;53.52
76358;BME280;65185;21.060;105.826;2023-11-21T06:47:42;101343.28;;;25.57;53.46
76358;BME280;65185;21.060;105.826;2023-11-21T06:50:10;101340.88;;;25.68;55.19
76358;BME280;65185;21.060;105.826;2023-11-21T06:52:37;101336.66;;;25.80;54.00
76358;BME280;65185;21.060;105.826;2023-11-21T06:55:05;101330.97;;;25.86;52.30
76358;BME280;65185;21.060;105.826;2023-11-21T06:57:34;101319.31;;;25.89;53.24
76358;BME280;65185;21.060;105.826;2023-11-21T07:00:01;101320.97;;;25.76;54.12
76358;BME280;65185;21.060;105.826;2023-11-21T07:02:28;101318.94;;;25.65;55.62
76358;BME280;65185;21.060;105.826;2023-11-21T07:04:55;101314.22;;;25.70;55.54
76358;BME280;65185;21.060;105.826;2023-11-21T07:07:22;101312.16;;;25.75;55.61
76358;BME280;65185;21.060;105.826;2023-11-21T07:09:49;101305.25;;;25.73;57.84
76358;BME280;65185;21.060;105.826;2023-11-21T07:12:16;101307.31;;;25.67;59.70
76358;BME280;65185;21.060;105.826;2023-11-21T07:14:43;101304.03;;;25.62;61.02
76358;BME280;65185;21.060;105.826;2023-11-21T07:17:11;101294.06;;;25.52;61.42
76358;BME280;65185;21.060;105.826;2023-11-21T07:19:38;101299.88;;;25.43;59.85
76358;BME280;65185;21.060;105.826;2023-11-21T07:22:05;101293.81;;;25.41;60.61
76358;BME280;65185;21.060;105.826;2023-11-21T07:24:33;101290.38;;;25.39;59.46
76358;BME280;65185;21.060;105.826;2023-11-21T07:27:00;101290.13;;;25.43;58.38
76358;BME280;65185;21.060;105.826;2023-11-21T07:29:27;101282.34;;;25.40;58.19
76358;BME280;65185;21.060;105.826;2023-11-21T07:31:56;101287.78;;;25.37;61.00
76358;BME280;65185;21.060;105.826;2023-11-21T07:34:22;101284.38;;;25.35;60.65
76358;BME280;65185;21.060;105.826;2023-11-21T07:36:49;101279.06;;;25.35;61.84
76358;BME280;65185;21.060;105.826;2023-11-21T07:39:16;101279.25;;;25.32;61.98
76358;BME280;65185;21.060;105.826;2023-11-21T07:41:43;101284.56;;;25.32;63.71
76358;BME280;65185;21.060;105.826;2023-11-21T07:44:15;101268.00;;;25.27;65.50
76358;BME280;65185;21.060;105.826;2023-11-21T07:46:43;101270.94;;;25.23;60.76
76358;BME280;65185;21.060;105.826;2023-11-21T07:49:10;101270.84;;;25.24;59.91
76358;BME280;65185;21.060;105.826;2023-11-21T07:51:37;101271.53;;;25.28;58.82
76358;BME280;65185;21.060;105.826;2023-11-21T07:54:04;101269.75;;;25.28;62.29
76358;BME280;65185;21.060;105.826;2023-11-21T07:56:31;101269.16;;;25.23;63.71
76358;BME280;65185;21.060;105.826;2023-11-21T07:58:58;101276.50;;;25.18;64.40
76358;BME280;65185;21.060;105.826;2023-11-21T08:01:25;101270.50;;;25.15;65.53
76358;BME280;65185;21.060;105.826;2023-11-21T08:03:54;101285.66;;;25.13;65.14
76358;BME280;65185;21.060;105.826;2023-11-21T08:06:23;101274.44;;;25.08;65.08
76358;BME280;65185;21.060;105.826;2023-11-21T08:08:51;101277.38;;;25.03;62.63
76358;BME280;65185;21.060;105.826;2023-11-21T08:11:18;101271.97;;;25.05;60.12
76358;BME280;65185;21.060;105.826;2023-11-21T08:13:45;101276.09;;;25.10;58.55
76358;BME280;65185;21.060;105.826;2023-11-21T08:16:12;101269.94;;;25.10;61.89
76358;BME280;65185;21.060;105.826;2023-11-21T08:18:39;101270.09;;;25.07;61.95
76358;BME280;65185;21.060;105.826;2023-11-21T08:21:07;101275.47;;;25.05;62.93
76358;BME280;65185;21.060;105.826;2023-11-21T08:23:34;101261.53;;;25.02;63.94
76358;BME280;65185;21.060;105.826;2023-11-21T08:26:01;101266.91;;;25.00;65.24
76358;BME280;65185;21.060;105.826;2023-11-21T08:28:29;101263.69;;;24.95;65.23
76358;BME280;65185;21.060;105.826;2023-11-21T08:30:56;101261.22;;;24.92;65.36
76358;BME280;65185;21.060;105.826;2023-11-21T08:33:23;101259.47;;;24.91;65.44
76358;BME280;65185;21.060;105.826;2023-11-21T08:35:50;101262.22;;;24.90;65.67
76358;BME280;65185;21.060;105.826;2023-11-21T08:38:17;101255.28;;;24.87;64.78
76358;BME280;65185;21.060;105.826;2023-11-21T08:40:43;101272.22;;;24.85;64.19
76358;BME280;65185;21.060;105.826;2023-11-21T08:43:10;101266.84;;;24.86;66.93
76358;BME280;65185;21.060;105.826;2023-11-21T08:45:40;101264.19;;;24.86;67.11
76358;BME280;65185;21.060;105.826;2023-11-21T08:48:07;101265.19;;;24.84;68.90
76358;BME280;65185;21.060;105.826;2023-11-21T08:50:34;101264.59;;;24.79;68.13
76358;BME280;65185;21.060;105.826;2023-11-21T08:53:01;101264.00;;;24.74;68.50
76358;BME280;65185;21.060;105.826;2023-11-21T08:55:28;101265.47;;;24.79;64.38
76358;BME280;65185;21.060;105.826;2023-11-21T08:57:55;101273.34;;;24.81;65.28
76358;BME280;65185;21.060;105.826;2023-11-21T09:00:21;101275.66;;;24.87;63.90
76358;BME280;65185;21.060;105.826;2023-11-21T09:02:48;101278.53;;;24.82;67.40
76358;BME280;65185;21.060;105.826;2023-11-21T09:05:15;101282.97;;;24.82;66.66
76358;BME280;65185;21.060;105.826;2023-11-21T09:07:43;101290.34;;;24.77;68.52
76358;BME280;65185;21.060;105.826;2023-11-21T09:10:12;101282.63;;;24.72;66.58
76358;BME280;65185;21.060;105.826;2023-11-21T09:16:01;101281.91;;;24.68;69.86
76358;BME280;65185;21.060;105.826;2023-11-21T09:18:29;101280.38;;;24.64;70.28
76358;BME280;65185;21.060;105.826;2023-11-21T09:20:56;101280.97;;;24.69;65.88
76358;BME280;65185;21.060;105.826;2023-11-21T09:23:24;101279.34;;;24.67;67.91
76358;BME280;65185;21.060;105.826;2023-11-21T09:25:51;101282.94;;;24.66;70.27
76358;BME280;65185;21.060;105.826;2023-11-21T09:28:18;101293.63;;;24.64;70.79
76358;BME280;65185;21.060;105.826;2023-11-21T09:30:44;101291.13;;;24.61;71.46
76358;BME280;65185;21.060;105.826;2023-11-21T09:33:11;101286.88;;;24.59;70.22
76358;BME280;65185;21.060;105.826;2023-11-21T09:35:37;101292.22;;;24.57;70.68
76358;BME280;65185;21.060;105.826;2023-11-21T09:38:04;101290.59;;;24.55;71.90
76358;BME280;65185;21.060;105.826;2023-11-21T09:40:37;101293.41;;;24.52;72.28
76358;BME280;65185;21.060;105.826;2023-11-21T09:43:09;101291.00;;;24.47;72.24
76358;BME280;65185;21.060;105.826;2023-11-21T09:45:45;101290.16;;;24.47;71.07
76358;BME280;65185;21.060;105.826;2023-11-21T09:48:14;101293.66;;;24.47;72.66
76358;BME280;65185;21.060;105.826;2023-11-21T09:50:42;101300.75;;;24.47;72.86
76358;BME280;65185;21.060;105.826;2023-11-21T09:53:20;101295.72;;;24.42;73.61
76358;BME280;65185;21.060;105.826;2023-11-21T09:55:49;101294.94;;;24.40;73.13
76358;BME280;65185;21.060;105.826;2023-11-21T09:58:18;101298.09;;;24.47;67.44
76358;BME280;65185;21.060;105.826;2023-11-21T10:00:46;101301.78;;;24.44;69.26
76358;BME280;65185;21.060;105.826;2023-11-21T10:03:13;101295.72;;;24.42;71.86
76358;BME280;65185;21.060;105.826;2023-11-21T10:05:44;101302.97;;;24.39;72.25
76358;BME280;65185;21.060;105.826;2023-11-21T10:08:12;101297.81;;;24.36;70.84
76358;BME280;65185;21.060;105.826;2023-11-21T10:10:46;101290.91;;;24.33;72.23
76358;BME280;65185;21.060;105.826;2023-11-21T10:13:15;101296.19;;;24.33;73.74
76358;BME280;65185;21.060;105.826;2023-11-21T10:15:45;101290.94;;;24.32;74.82
76358;BME280;65185;21.060;105.826;2023-11-21T10:18:15;101293.69;;;24.30;75.75
76358;BME280;65185;21.060;105.826;2023-11-21T10:20:42;101296.41;;;24.29;75.34
76358;BME280;65185;21.060;105.826;2023-11-21T10:23:11;101300.94;;;24.27;75.55
76358;BME280;65185;21.060;105.826;2023-11-21T10:25:38;101295.56;;;24.28;76.72
76358;BME280;65185;21.060;105.826;2023-11-21T10:28:05;101297.38;;;24.28;76.89
76358;BME280;65185;21.060;105.826;2023-11-21T10:30:36;101290.50;;;24.24;77.09
76358;BME280;65185;21.060;105.826;2023-11-21T10:33:04;101296.59;;;24.26;77.56
76358;BME280;65185;21.060;105.826;2023-11-21T10:35:44;101297.59;;;24.23;78.32
76358;BME280;65185;21.060;105.826;2023-11-21T10:38:21;101297.69;;;24.22;78.40
76358;BME280;65185;21.060;105.826;2023-11-21T10:40:50;101305.72;;;24.20;77.29
76358;BME280;65185;21.060;105.826;2023-11-21T10:43:17;101303.97;;;24.19;77.00
76358;BME280;65185;21.060;105.826;2023-11-21T10:45:44;101303.19;;;24.17;77.17
76358;BME280;65185;21.060;105.826;2023-11-21T10:48:14;101302.41;;;24.15;77.40
76358;BME280;65185;21.060;105.826;2023-11-21T10:50:47;101310.44;;;24.14;78.01
76358;BME280;65185;21.060;105.826;2023-11-21T10:53:14;101306.09;;;24.13;78.21
76358;BME280;65185;21.060;105.826;2023-11-21T10:55:41;101307.00;;;24.12;78.65
76358;BME280;65185;21.060;105.826;2023-11-21T10:58:10;101315.03;;;24.10;79.37
76358;BME280;65185;21.060;105.826;2023-11-21T11:00:40;101319.47;;;24.10;80.23
76358;BME280;65185;21.060;105.826;2023-11-21T11:03:06;101318.78;;;24.06;78.16
76358;BME280;65185;21.060;105.826;2023-11-21T11:05:41;101324.78;;;24.10;77.42
76358;BME280;65185;21.060;105.826;2023-11-21T11:08:19;101324.63;;;24.13;79.14
76358;BME280;65185;21.060;105.826;2023-11-21T11:10:52;101330.63;;;24.16;80.72
76358;BME280;65185;21.060;105.826;2023-11-21T11:13:19;101336.78;;;24.17;82.51
76358;BME280;65185;21.060;105.826;2023-11-21T11:15:48;101343.69;;;24.19;81.79
76358;BME280;65185;21.060;105.826;2023-11-21T11:18:16;101337.78;;;24.14;81.84
76358;BME280;65185;21.060;105.826;2023-11-21T11:20:44;101353.69;;;24.14;81.89
76358;BME280;65185;21.060;105.826;2023-11-21T11:23:45;101360.84;;;24.12;82.06
76358;BME280;65185;21.060;105.826;2023-11-21T11:26:31;101354.75;;;24.10;82.52
76358;BME280;65185;21.060;105.826;2023-11-21T11:29:33;101363.00;;;24.04;82.47
76358;BME280;65185;21.060;105.826;2023-11-21T11:34:53;101371.25;;;23.98;84.93
76358;BME280;65185;21.060;105.826;2023-11-21T11:37:23;101366.00;;;23.97;83.88
76358;BME280;65185;21.060;105.826;2023-11-21T11:39:51;101371.38;;;23.95;84.91
76358;BME280;65185;21.060;105.826;2023-11-21T11:42:17;101376.75;;;23.94;85.37
76358;BME280;65185;21.060;105.826;2023-11-21T11:44:46;101383.03;;;23.91;86.35
76358;BME280;65185;21.060;105.826;2023-11-21T11:47:29;101384.97;;;23.88;86.21
76358;BME280;65185;21.060;105.826;2023-11-21T11:50:11;101390.50;;;23.83;86.68
76358;BME280;65185;21.060;105.826;2023-11-21T11:52:52;101391.66;;;23.77;85.44
76358;BME280;65185;21.060;105.826;2023-11-21T11:55:24;101396.97;;;23.77;85.95
76358;BME280;65185;21.060;105.826;2023-11-21T11:57:55;101400.59;;;23.75;86.36
76358;BME280;65185;21.060;105.826;2023-11-21T12:00:32;101395.56;;;23.70;85.64
76358;BME280;65185;21.060;105.826;2023-11-21T12:03:03;101400.94;;;23.69;85.93
76358;BME280;65185;21.060;105.826;2023-11-21T12:05:32;101403.56;;;23.69;85.94
76358;BME280;65185;21.060;105.826;2023-11-21T12:08:05;101400.13;;;23.67;86.04
76358;BME280;65185;21.060;105.826;2023-11-21T12:10:34;101410.84;;;23.64;85.72
76358;BME280;65185;21.060;105.826;2023-11-21T12:13:08;101419.72;;;23.63;85.98
76358;BME280;65185;21.060;105.826;2023-11-21T12:15:36;101419.66;;;23.64;86.05
76358;BME280;65185;21.060;105.826;2023-11-21T12:18:04;101424.06;;;23.64;86.44
76358;BME280;65185;21.060;105.826;2023-11-21T12:20:31;101423.25;;;23.63;85.93
76358;BME280;65185;21.060;105.826;2023-11-21T12:22:59;101431.19;;;23.63;86.59
76358;BME280;65185;21.060;105.826;2023-11-21T12:25:29;101432.16;;;23.61;87.37
76358;BME280;65185;21.060;105.826;2023-11-21T12:27:58;101441.19;;;23.57;86.73
76358;BME280;65185;21.060;105.826;2023-11-21T12:30:30;101436.88;;;23.54;87.10
76358;BME280;65185;21.060;105.826;2023-11-21T12:32:58;101440.38;;;23.55;87.34
76358;BME280;65185;21.060;105.826;2023-11-21T12:35:29;101440.63;;;23.50;86.37
76358;BME280;65185;21.060;105.826;2023-11-21T12:37:56;101446.91;;;23.48;86.03
76358;BME280;65185;21.060;105.826;2023-11-21T12:40:23;101446.97;;;23.46;86.23
76358;BME280;65185;21.060;105.826;2023-11-21T12:42:58;101444.44;;;23.62;85.33